Terminal Aerodrome Forecast
Issued by NWS Northern Indiana

Home | Current Version | Previous Version | Text Only | Print | Product List | Glossary On
Versions: 1 2 3 4 5 6 7 8 9 10 11 12 13 14
000
FTUS43 KIWX 251100
TAFFWA
TAF
KFWA 251140Z 2512/2612 25013G21KT P6SM SCT018 OVC022
      TEMPO 2512/2516 OVC018
     FM251800 26012KT P6SM BKN035
     FM260000 24004KT P6SM SCT035=

USA.gov is the U.S. government's official web portal to all federal, state and local government web resources and services.